sensor_id;sensor_type;location;lat;lon;timestamp;P1;durP1;ratioP1;P2;durP2;ratioP2
70997;SDS011;58663;52.040;4.634;2023-06-26T00:01:29;8.98;;;4.78;;
70997;SDS011;58663;52.040;4.634;2023-06-26T00:03:57;5.78;;;4.55;;
70997;SDS011;58663;52.040;4.634;2023-06-26T00:06:24;7.15;;;4.90;;
70997;SDS011;58663;52.040;4.634;2023-06-26T00:08:53;6.13;;;4.90;;
70997;SDS011;58663;52.040;4.634;2023-06-26T00:11:19;11.60;;;4.80;;
70997;SDS011;58663;52.040;4.634;2023-06-26T00:13:44;8.02;;;4.80;;
70997;SDS011;58663;52.040;4.634;2023-06-26T00:16:10;6.80;;;4.95;;
70997;SDS011;58663;52.040;4.634;2023-06-26T00:18:35;7.00;;;5.18;;
70997;SDS011;58663;52.040;4.634;2023-06-26T00:21:01;6.72;;;4.95;;
70997;SDS011;58663;52.040;4.634;2023-06-26T00:23:26;8.85;;;5.50;;
70997;SDS011;58663;52.040;4.634;2023-06-26T00:25:52;10.02;;;5.40;;
70997;SDS011;58663;52.040;4.634;2023-06-26T00:28:18;8.35;;;5.45;;
70997;SDS011;58663;52.040;4.634;2023-06-26T00:30:43;6.75;;;5.13;;
70997;SDS011;58663;52.040;4.634;2023-06-26T00:33:08;10.18;;;4.80;;
70997;SDS011;58663;52.040;4.634;2023-06-26T00:35:34;8.55;;;4.90;;
70997;SDS011;58663;52.040;4.634;2023-06-26T00:38:00;9.93;;;4.32;;
70997;SDS011;58663;52.040;4.634;2023-06-26T00:40:26;8.18;;;4.60;;
70997;SDS011;58663;52.040;4.634;2023-06-26T00:42:52;8.02;;;4.65;;
70997;SDS011;58663;52.040;4.634;2023-06-26T00:45:18;10.07;;;4.50;;
70997;SDS011;58663;52.040;4.634;2023-06-26T00:47:43;10.60;;;5.15;;
70997;SDS011;58663;52.040;4.634;2023-06-26T00:50:08;10.60;;;5.03;;
70997;SDS011;58663;52.040;4.634;2023-06-26T00:52:34;6.97;;;4.82;;
70997;SDS011;58663;52.040;4.634;2023-06-26T00:54:59;13.70;;;5.45;;
70997;SDS011;58663;52.040;4.634;2023-06-26T00:57:25;22.92;;;4.57;;
70997;SDS011;58663;52.040;4.634;2023-06-26T00:59:50;9.93;;;4.57;;
70997;SDS011;58663;52.040;4.634;2023-06-26T01:02:16;9.25;;;5.18;;
70997;SDS011;58663;52.040;4.634;2023-06-26T01:04:53;13.98;;;4.63;;
70997;SDS011;58663;52.040;4.634;2023-06-26T01:07:19;12.48;;;4.88;;
70997;SDS011;58663;52.040;4.634;2023-06-26T01:09:48;14.23;;;4.53;;
70997;SDS011;58663;52.040;4.634;2023-06-26T01:12:14;9.35;;;4.32;;
70997;SDS011;58663;52.040;4.634;2023-06-26T01:14:39;11.65;;;4.85;;
70997;SDS011;58663;52.040;4.634;2023-06-26T01:17:04;16.48;;;5.03;;
70997;SDS011;58663;52.040;4.634;2023-06-26T01:19:31;17.50;;;4.80;;
70997;SDS011;58663;52.040;4.634;2023-06-26T01:22:00;15.68;;;5.10;;
70997;SDS011;58663;52.040;4.634;2023-06-26T01:24:32;15.75;;;4.45;;
70997;SDS011;58663;52.040;4.634;2023-06-26T01:26:59;10.00;;;4.93;;
70997;SDS011;58663;52.040;4.634;2023-06-26T01:29:24;14.70;;;4.57;;
70997;SDS011;58663;52.040;4.634;2023-06-26T01:31:50;12.40;;;4.90;;
70997;SDS011;58663;52.040;4.634;2023-06-26T01:34:16;17.45;;;5.18;;
70997;SDS011;58663;52.040;4.634;2023-06-26T01:36:43;10.95;;;5.45;;
70997;SDS011;58663;52.040;4.634;2023-06-26T01:39:09;16.38;;;5.00;;
70997;SDS011;58663;52.040;4.634;2023-06-26T01:41:34;13.65;;;5.10;;
70997;SDS011;58663;52.040;4.634;2023-06-26T01:46:35;14.93;;;5.07;;
70997;SDS011;58663;52.040;4.634;2023-06-26T01:51:45;11.23;;;4.90;;
70997;SDS011;58663;52.040;4.634;2023-06-26T01:54:17;15.43;;;5.63;;
70997;SDS011;58663;52.040;4.634;2023-06-26T01:56:44;11.55;;;5.05;;
70997;SDS011;58663;52.040;4.634;2023-06-26T01:59:10;14.32;;;4.85;;
70997;SDS011;58663;52.040;4.634;2023-06-26T02:01:38;13.98;;;5.03;;
70997;SDS011;58663;52.040;4.634;2023-06-26T02:04:04;12.43;;;4.70;;
70997;SDS011;58663;52.040;4.634;2023-06-26T02:06:29;15.98;;;4.78;;
70997;SDS011;58663;52.040;4.634;2023-06-26T02:08:55;11.40;;;5.22;;
70997;SDS011;58663;52.040;4.634;2023-06-26T02:11:21;9.50;;;4.57;;
70997;SDS011;58663;52.040;4.634;2023-06-26T02:13:47;13.85;;;5.18;;
70997;SDS011;58663;52.040;4.634;2023-06-26T02:16:12;12.52;;;5.78;;
70997;SDS011;58663;52.040;4.634;2023-06-26T02:18:38;14.52;;;4.22;;
70997;SDS011;58663;52.040;4.634;2023-06-26T02:21:03;10.43;;;5.05;;
70997;SDS011;58663;52.040;4.634;2023-06-26T02:23:29;13.05;;;4.63;;
70997;SDS011;58663;52.040;4.634;2023-06-26T02:25:54;11.55;;;4.15;;
70997;SDS011;58663;52.040;4.634;2023-06-26T02:28:19;13.63;;;4.82;;
70997;SDS011;58663;52.040;4.634;2023-06-26T02:30:45;15.85;;;4.90;;
70997;SDS011;58663;52.040;4.634;2023-06-26T02:33:10;13.25;;;4.68;;
70997;SDS011;58663;52.040;4.634;2023-06-26T02:35:35;9.63;;;4.75;;
70997;SDS011;58663;52.040;4.634;2023-06-26T02:38:01;12.48;;;4.75;;
70997;SDS011;58663;52.040;4.634;2023-06-26T02:40:26;11.20;;;4.75;;
70997;SDS011;58663;52.040;4.634;2023-06-26T02:42:51;14.23;;;4.88;;
70997;SDS011;58663;52.040;4.634;2023-06-26T02:45:17;16.75;;;5.03;;
70997;SDS011;58663;52.040;4.634;2023-06-26T02:47:42;14.77;;;5.03;;
70997;SDS011;58663;52.040;4.634;2023-06-26T02:50:08;13.18;;;4.30;;
70997;SDS011;58663;52.040;4.634;2023-06-26T02:52:33;10.75;;;4.68;;
70997;SDS011;58663;52.040;4.634;2023-06-26T02:54:59;15.93;;;4.90;;
70997;SDS011;58663;52.040;4.634;2023-06-26T02:57:24;12.65;;;4.40;;
70997;SDS011;58663;52.040;4.634;2023-06-26T02:59:49;17.13;;;5.55;;
70997;SDS011;58663;52.040;4.634;2023-06-26T03:02:15;15.98;;;5.10;;
70997;SDS011;58663;52.040;4.634;2023-06-26T03:04:40;12.70;;;4.60;;
70997;SDS011;58663;52.040;4.634;2023-06-26T03:07:08;16.33;;;5.07;;
70997;SDS011;58663;52.040;4.634;2023-06-26T03:09:33;15.85;;;5.15;;
70997;SDS011;58663;52.040;4.634;2023-06-26T03:11:59;16.02;;;4.97;;
70997;SDS011;58663;52.040;4.634;2023-06-26T03:14:24;19.23;;;4.90;;
70997;SDS011;58663;52.040;4.634;2023-06-26T03:16:50;15.13;;;5.47;;
70997;SDS011;58663;52.040;4.634;2023-06-26T03:19:17;17.90;;;5.35;;
70997;SDS011;58663;52.040;4.634;2023-06-26T03:21:43;15.85;;;5.05;;
70997;SDS011;58663;52.040;4.634;2023-06-26T03:24:08;12.45;;;4.80;;
70997;SDS011;58663;52.040;4.634;2023-06-26T03:26:34;16.42;;;4.80;;
70997;SDS011;58663;52.040;4.634;2023-06-26T03:28:59;14.85;;;4.63;;
70997;SDS011;58663;52.040;4.634;2023-06-26T03:31:24;18.98;;;5.35;;
70997;SDS011;58663;52.040;4.634;2023-06-26T03:33:50;13.68;;;5.18;;
70997;SDS011;58663;52.040;4.634;2023-06-26T03:36:15;21.63;;;5.47;;
70997;SDS011;58663;52.040;4.634;2023-06-26T03:38:41;16.17;;;4.97;;
70997;SDS011;58663;52.040;4.634;2023-06-26T03:41:06;24.50;;;5.60;;
70997;SDS011;58663;52.040;4.634;2023-06-26T03:43:31;18.55;;;4.95;;
70997;SDS011;58663;52.040;4.634;2023-06-26T03:45:57;14.82;;;5.18;;
70997;SDS011;58663;52.040;4.634;2023-06-26T03:48:22;13.18;;;5.70;;
70997;SDS011;58663;52.040;4.634;2023-06-26T03:50:48;13.73;;;4.55;;
70997;SDS011;58663;52.040;4.634;2023-06-26T03:53:14;13.55;;;5.47;;
70997;SDS011;58663;52.040;4.634;2023-06-26T03:55:39;15.60;;;5.30;;
70997;SDS011;58663;52.040;4.634;2023-06-26T03:58:04;15.52;;;5.45;;
70997;SDS011;58663;52.040;4.634;2023-06-26T04:00:30;13.20;;;5.40;;
70997;SDS011;58663;52.040;4.634;2023-06-26T04:02:55;21.40;;;5.28;;
70997;SDS011;58663;52.040;4.634;2023-06-26T04:05:21;13.10;;;5.22;;
70997;SDS011;58663;52.040;4.634;2023-06-26T04:07:49;13.48;;;4.57;;
70997;SDS011;58663;52.040;4.634;2023-06-26T04:10:15;15.65;;;4.78;;
70997;SDS011;58663;52.040;4.634;2023-06-26T04:12:41;19.50;;;4.90;;
70997;SDS011;58663;52.040;4.634;2023-06-26T04:15:06;13.18;;;5.25;;
70997;SDS011;58663;52.040;4.634;2023-06-26T04:17:32;18.80;;;5.45;;
70997;SDS011;58663;52.040;4.634;2023-06-26T04:19:57;13.10;;;4.80;;
70997;SDS011;58663;52.040;4.634;2023-06-26T04:22:23;11.52;;;4.65;;
70997;SDS011;58663;52.040;4.634;2023-06-26T04:24:48;19.23;;;5.22;;
70997;SDS011;58663;52.040;4.634;2023-06-26T04:27:14;19.38;;;4.90;;
70997;SDS011;58663;52.040;4.634;2023-06-26T04:29:39;11.15;;;4.72;;
70997;SDS011;58663;52.040;4.634;2023-06-26T04:32:05;16.40;;;5.20;;
70997;SDS011;58663;52.040;4.634;2023-06-26T04:34:32;17.85;;;4.75;;
70997;SDS011;58663;52.040;4.634;2023-06-26T04:36:59;12.50;;;4.57;;
70997;SDS011;58663;52.040;4.634;2023-06-26T04:39:24;11.18;;;4.30;;
70997;SDS011;58663;52.040;4.634;2023-06-26T04:41:49;9.02;;;4.20;;
70997;SDS011;58663;52.040;4.634;2023-06-26T04:44:15;12.80;;;4.13;;
70997;SDS011;58663;52.040;4.634;2023-06-26T04:46:40;10.60;;;3.85;;
70997;SDS011;58663;52.040;4.634;2023-06-26T04:49:06;5.95;;;3.22;;
70997;SDS011;58663;52.040;4.634;2023-06-26T04:51:34;7.13;;;3.10;;
70997;SDS011;58663;52.040;4.634;2023-06-26T04:54:06;8.10;;;3.60;;
70997;SDS011;58663;52.040;4.634;2023-06-26T04:56:32;5.75;;;3.63;;
70997;SDS011;58663;52.040;4.634;2023-06-26T04:58:58;8.48;;;3.40;;
70997;SDS011;58663;52.040;4.634;2023-06-26T05:01:23;9.85;;;3.17;;
70997;SDS011;58663;52.040;4.634;2023-06-26T05:03:48;6.18;;;3.08;;
70997;SDS011;58663;52.040;4.634;2023-06-26T05:06:14;6.55;;;2.97;;
70997;SDS011;58663;52.040;4.634;2023-06-26T05:08:39;7.65;;;3.30;;
70997;SDS011;58663;52.040;4.634;2023-06-26T05:11:05;7.90;;;3.20;;
70997;SDS011;58663;52.040;4.634;2023-06-26T05:13:30;8.55;;;2.95;;
70997;SDS011;58663;52.040;4.634;2023-06-26T05:15:55;8.95;;;3.42;;
70997;SDS011;58663;52.040;4.634;2023-06-26T05:18:21;11.02;;;3.28;;
70997;SDS011;58663;52.040;4.634;2023-06-26T05:20:46;9.20;;;2.95;;
70997;SDS011;58663;52.040;4.634;2023-06-26T05:23:12;4.95;;;3.13;;
70997;SDS011;58663;52.040;4.634;2023-06-26T05:25:38;6.60;;;3.13;;
70997;SDS011;58663;52.040;4.634;2023-06-26T05:28:03;7.00;;;3.10;;
70997;SDS011;58663;52.040;4.634;2023-06-26T05:30:35;7.88;;;3.67;;
70997;SDS011;58663;52.040;4.634;2023-06-26T05:33:00;8.90;;;3.20;;
70997;SDS011;58663;52.040;4.634;2023-06-26T05:35:28;12.63;;;3.28;;
70997;SDS011;58663;52.040;4.634;2023-06-26T05:37:55;7.07;;;3.25;;
70997;SDS011;58663;52.040;4.634;2023-06-26T05:40:20;7.50;;;3.35;;
70997;SDS011;58663;52.040;4.634;2023-06-26T05:42:46;7.68;;;3.17;;
70997;SDS011;58663;52.040;4.634;2023-06-26T05:45:12;7.50;;;2.97;;
70997;SDS011;58663;52.040;4.634;2023-06-26T05:47:37;7.82;;;3.25;;
70997;SDS011;58663;52.040;4.634;2023-06-26T05:50:03;8.23;;;3.22;;
70997;SDS011;58663;52.040;4.634;2023-06-26T05:52:29;7.20;;;2.75;;
70997;SDS011;58663;52.040;4.634;2023-06-26T05:54:55;8.23;;;2.55;;
70997;SDS011;58663;52.040;4.634;2023-06-26T05:57:24;9.35;;;2.50;;
70997;SDS011;58663;52.040;4.634;2023-06-26T05:59:53;4.40;;;2.10;;
70997;SDS011;58663;52.040;4.634;2023-06-26T06:02:19;4.50;;;2.13;;
70997;SDS011;58663;52.040;4.634;2023-06-26T06:04:44;7.15;;;2.08;;
70997;SDS011;58663;52.040;4.634;2023-06-26T06:07:10;4.95;;;1.80;;
70997;SDS011;58663;52.040;4.634;2023-06-26T06:09:35;5.22;;;1.92;;
70997;SDS011;58663;52.040;4.634;2023-06-26T06:12:00;7.60;;;2.65;;
70997;SDS011;58663;52.040;4.634;2023-06-26T06:14:27;3.45;;;1.90;;
70997;SDS011;58663;52.040;4.634;2023-06-26T06:16:53;9.00;;;1.88;;
70997;SDS011;58663;52.040;4.634;2023-06-26T06:19:18;6.28;;;2.10;;
70997;SDS011;58663;52.040;4.634;2023-06-26T06:21:44;6.90;;;1.77;;
70997;SDS011;58663;52.040;4.634;2023-06-26T06:24:09;6.28;;;1.75;;
70997;SDS011;58663;52.040;4.634;2023-06-26T06:26:35;6.20;;;2.20;;
70997;SDS011;58663;52.040;4.634;2023-06-26T06:29:00;5.25;;;1.50;;
70997;SDS011;58663;52.040;4.634;2023-06-26T06:31:26;3.88;;;1.60;;
70997;SDS011;58663;52.040;4.634;2023-06-26T06:33:53;5.95;;;1.60;;
70997;SDS011;58663;52.040;4.634;2023-06-26T06:36:19;11.38;;;2.08;;
70997;SDS011;58663;52.040;4.634;2023-06-26T06:38:44;4.50;;;1.45;;
70997;SDS011;58663;52.040;4.634;2023-06-26T06:41:10;7.65;;;1.60;;
70997;SDS011;58663;52.040;4.634;2023-06-26T06:43:35;5.82;;;1.48;;
70997;SDS011;58663;52.040;4.634;2023-06-26T06:46:01;5.88;;;1.50;;
70997;SDS011;58663;52.040;4.634;2023-06-26T06:48:26;4.15;;;1.85;;
70997;SDS011;58663;52.040;4.634;2023-06-26T06:50:52;5.18;;;1.70;;
70997;SDS011;58663;52.040;4.634;2023-06-26T06:53:17;4.78;;;1.83;;
70997;SDS011;58663;52.040;4.634;2023-06-26T06:55:45;7.57;;;1.75;;
70997;SDS011;58663;52.040;4.634;2023-06-26T06:58:11;8.27;;;2.05;;
70997;SDS011;58663;52.040;4.634;2023-06-26T07:00:36;6.22;;;1.95;;
70997;SDS011;58663;52.040;4.634;2023-06-26T07:03:01;3.63;;;1.70;;
70997;SDS011;58663;52.040;4.634;2023-06-26T07:05:27;8.15;;;1.83;;
70997;SDS011;58663;52.040;4.634;2023-06-26T07:07:52;7.93;;;1.80;;
70997;SDS011;58663;52.040;4.634;2023-06-26T07:10:18;8.07;;;1.67;;
70997;SDS011;58663;52.040;4.634;2023-06-26T07:12:43;7.55;;;1.80;;
70997;SDS011;58663;52.040;4.634;2023-06-26T07:15:09;12.75;;;1.95;;
70997;SDS011;58663;52.040;4.634;2023-06-26T07:17:35;10.23;;;2.08;;
70997;SDS011;58663;52.040;4.634;2023-06-26T07:20:02;4.85;;;1.73;;
70997;SDS011;58663;52.040;4.634;2023-06-26T07:22:35;8.48;;;1.85;;
70997;SDS011;58663;52.040;4.634;2023-06-26T07:25:01;7.35;;;1.65;;
70997;SDS011;58663;52.040;4.634;2023-06-26T07:27:27;10.45;;;1.98;;
70997;SDS011;58663;52.040;4.634;2023-06-26T07:29:52;5.97;;;1.85;;
70997;SDS011;58663;52.040;4.634;2023-06-26T07:32:17;6.22;;;1.88;;
70997;SDS011;58663;52.040;4.634;2023-06-26T07:34:43;5.28;;;1.80;;
70997;SDS011;58663;52.040;4.634;2023-06-26T07:37:08;8.75;;;2.22;;
70997;SDS011;58663;52.040;4.634;2023-06-26T07:39:33;8.70;;;2.08;;
70997;SDS011;58663;52.040;4.634;2023-06-26T07:41:59;7.00;;;1.83;;
70997;SDS011;58663;52.040;4.634;2023-06-26T07:44:25;5.50;;;1.65;;
70997;SDS011;58663;52.040;4.634;2023-06-26T07:46:50;6.13;;;1.67;;
70997;SDS011;58663;52.040;4.634;2023-06-26T07:49:16;10.70;;;1.92;;
70997;SDS011;58663;52.040;4.634;2023-06-26T07:51:41;6.50;;;2.13;;
70997;SDS011;58663;52.040;4.634;2023-06-26T07:54:06;5.82;;;1.40;;
70997;SDS011;58663;52.040;4.634;2023-06-26T07:56:35;10.38;;;2.15;;
70997;SDS011;58663;52.040;4.634;2023-06-26T07:59:16;7.30;;;1.75;;
70997;SDS011;58663;52.040;4.634;2023-06-26T08:01:42;6.25;;;1.85;;
70997;SDS011;58663;52.040;4.634;2023-06-26T08:04:07;7.78;;;1.98;;
70997;SDS011;58663;52.040;4.634;2023-06-26T08:06:35;5.03;;;1.77;;
70997;SDS011;58663;52.040;4.634;2023-06-26T08:09:01;9.98;;;2.03;;
70997;SDS011;58663;52.040;4.634;2023-06-26T08:11:29;5.95;;;2.30;;
70997;SDS011;58663;52.040;4.634;2023-06-26T08:13:55;3.47;;;1.88;;
70997;SDS011;58663;52.040;4.634;2023-06-26T08:16:20;5.43;;;1.45;;
70997;SDS011;58663;52.040;4.634;2023-06-26T08:18:46;4.95;;;1.38;;
70997;SDS011;58663;52.040;4.634;2023-06-26T08:21:11;5.55;;;1.65;;
70997;SDS011;58663;52.040;4.634;2023-06-26T08:23:36;7.78;;;1.90;;
70997;SDS011;58663;52.040;4.634;2023-06-26T08:26:02;4.90;;;1.60;;
70997;SDS011;58663;52.040;4.634;2023-06-26T08:28:27;6.18;;;1.80;;
70997;SDS011;58663;52.040;4.634;2023-06-26T08:30:52;4.50;;;1.77;;
70997;SDS011;58663;52.040;4.634;2023-06-26T08:33:18;5.03;;;1.70;;
70997;SDS011;58663;52.040;4.634;2023-06-26T08:35:43;5.53;;;2.25;;
70997;SDS011;58663;52.040;4.634;2023-06-26T08:38:09;11.60;;;1.90;;
70997;SDS011;58663;52.040;4.634;2023-06-26T08:40:34;12.00;;;1.77;;
70997;SDS011;58663;52.040;4.634;2023-06-26T08:43:01;9.73;;;2.22;;
70997;SDS011;58663;52.040;4.634;2023-06-26T08:45:28;6.85;;;1.85;;
70997;SDS011;58663;52.040;4.634;2023-06-26T08:47:53;15.43;;;2.38;;
70997;SDS011;58663;52.040;4.634;2023-06-26T08:50:20;6.22;;;1.88;;
70997;SDS011;58663;52.040;4.634;2023-06-26T08:55:23;3.17;;;1.52;;
70997;SDS011;58663;52.040;4.634;2023-06-26T08:57:50;4.68;;;1.83;;
70997;SDS011;58663;52.040;4.634;2023-06-26T09:00:16;7.47;;;1.77;;
70997;SDS011;58663;52.040;4.634;2023-06-26T09:02:42;3.10;;;1.52;;
70997;SDS011;58663;52.040;4.634;2023-06-26T09:05:08;2.70;;;1.40;;
70997;SDS011;58663;52.040;4.634;2023-06-26T09:07:34;4.75;;;1.92;;
70997;SDS011;58663;52.040;4.634;2023-06-26T09:09:59;6.05;;;1.58;;
70997;SDS011;58663;52.040;4.634;2023-06-26T09:12:26;8.80;;;2.13;;
70997;SDS011;58663;52.040;4.634;2023-06-26T09:14:52;6.32;;;1.50;;
70997;SDS011;58663;52.040;4.634;2023-06-26T09:17:17;6.20;;;1.50;;
70997;SDS011;58663;52.040;4.634;2023-06-26T09:19:45;7.05;;;2.08;;
70997;SDS011;58663;52.040;4.634;2023-06-26T09:22:11;5.50;;;1.60;;
70997;SDS011;58663;52.040;4.634;2023-06-26T09:24:40;12.40;;;2.03;;
70997;SDS011;58663;52.040;4.634;2023-06-26T09:27:06;4.13;;;1.40;;
70997;SDS011;58663;52.040;4.634;2023-06-26T09:29:32;9.98;;;1.50;;
70997;SDS011;58663;52.040;4.634;2023-06-26T09:31:58;6.15;;;1.27;;
70997;SDS011;58663;52.040;4.634;2023-06-26T09:34:31;6.38;;;2.03;;
70997;SDS011;58663;52.040;4.634;2023-06-26T09:36:57;4.05;;;1.98;;
70997;SDS011;58663;52.040;4.634;2023-06-26T09:39:23;6.60;;;1.95;;
70997;SDS011;58663;52.040;4.634;2023-06-26T09:41:49;5.38;;;1.58;;
70997;SDS011;58663;52.040;4.634;2023-06-26T09:44:15;6.07;;;2.08;;
70997;SDS011;58663;52.040;4.634;2023-06-26T09:46:40;5.63;;;1.80;;
70997;SDS011;58663;52.040;4.634;2023-06-26T09:49:07;8.25;;;1.70;;
70997;SDS011;58663;52.040;4.634;2023-06-26T09:51:34;5.60;;;1.83;;
70997;SDS011;58663;52.040;4.634;2023-06-26T09:54:01;6.95;;;1.95;;
70997;SDS011;58663;52.040;4.634;2023-06-26T09:56:27;9.18;;;1.85;;
70997;SDS011;58663;52.040;4.634;2023-06-26T09:58:57;13.00;;;1.95;;
70997;SDS011;58663;52.040;4.634;2023-06-26T10:01:24;11.30;;;1.90;;
70997;SDS011;58663;52.040;4.634;2023-06-26T10:03:49;16.90;;;2.42;;
70997;SDS011;58663;52.040;4.634;2023-06-26T10:06:15;10.05;;;2.05;;
70997;SDS011;58663;52.040;4.634;2023-06-26T10:08:46;4.60;;;1.70;;
70997;SDS011;58663;52.040;4.634;2023-06-26T10:11:12;6.88;;;2.10;;
70997;SDS011;58663;52.040;4.634;2023-06-26T10:13:40;8.15;;;1.48;;
70997;SDS011;58663;52.040;4.634;2023-06-26T10:16:07;11.65;;;1.80;;
70997;SDS011;58663;52.040;4.634;2023-06-26T10:18:33;4.20;;;1.50;;
70997;SDS011;58663;52.040;4.634;2023-06-26T10:21:00;3.88;;;1.58;;
70997;SDS011;58663;52.040;4.634;2023-06-26T10:23:27;60.10;;;3.80;;
70997;SDS011;58663;52.040;4.634;2023-06-26T10:25:53;15.85;;;2.15;;
70997;SDS011;58663;52.040;4.634;2023-06-26T10:28:20;9.85;;;2.17;;
70997;SDS011;58663;52.040;4.634;2023-06-26T10:30:46;16.58;;;2.42;;
70997;SDS011;58663;52.040;4.634;2023-06-26T10:33:13;12.45;;;1.80;;
70997;SDS011;58663;52.040;4.634;2023-06-26T10:35:43;3.80;;;1.42;;
70997;SDS011;58663;52.040;4.634;2023-06-26T10:38:09;2.17;;;1.48;;
70997;SDS011;58663;52.040;4.634;2023-06-26T10:40:44;5.13;;;1.50;;
70997;SDS011;58663;52.040;4.634;2023-06-26T10:43:11;4.85;;;1.80;;
70997;SDS011;58663;52.040;4.634;2023-06-26T10:45:42;4.45;;;1.50;;
70997;SDS011;58663;52.040;4.634;2023-06-26T10:48:15;5.40;;;1.40;;
70997;SDS011;58663;52.040;4.634;2023-06-26T10:50:40;24.13;;;4.22;;
70997;SDS011;58663;52.040;4.634;2023-06-26T10:56:04;4.80;;;1.38;;
70997;SDS011;58663;52.040;4.634;2023-06-26T11:03:40;6.88;;;1.42;;
70997;SDS011;58663;52.040;4.634;2023-06-26T11:06:29;1.90;;;1.10;;
70997;SDS011;58663;52.040;4.634;2023-06-26T11:09:14;3.55;;;1.20;;
70997;SDS011;58663;52.040;4.634;2023-06-26T11:14:18;6.03;;;1.45;;
70997;SDS011;58663;52.040;4.634;2023-06-26T11:16:44;2.78;;;1.33;;
70997;SDS011;58663;52.040;4.634;2023-06-26T11:19:10;5.97;;;1.65;;
70997;SDS011;58663;52.040;4.634;2023-06-26T11:21:39;7.10;;;1.45;;
70997;SDS011;58663;52.040;4.634;2023-06-26T11:24:05;4.07;;;1.10;;
70997;SDS011;58663;52.040;4.634;2023-06-26T11:26:32;5.22;;;1.50;;
70997;SDS011;58663;52.040;4.634;2023-06-26T11:29:06;8.65;;;1.40;;
70997;SDS011;58663;52.040;4.634;2023-06-26T11:31:38;3.78;;;1.10;;
70997;SDS011;58663;52.040;4.634;2023-06-26T11:34:05;8.50;;;1.33;;
70997;SDS011;58663;52.040;4.634;2023-06-26T11:36:33;10.85;;;1.38;;
70997;SDS011;58663;52.040;4.634;2023-06-26T11:39:02;4.53;;;1.25;;
70997;SDS011;58663;52.040;4.634;2023-06-26T11:41:31;6.90;;;1.17;;
70997;SDS011;58663;52.040;4.634;2023-06-26T11:44:03;4.65;;;1.10;;
70997;SDS011;58663;52.040;4.634;2023-06-26T11:46:29;4.53;;;1.52;;
70997;SDS011;58663;52.040;4.634;2023-06-26T11:48:55;5.72;;;1.50;;
70997;SDS011;58663;52.040;4.634;2023-06-26T11:51:21;4.25;;;1.40;;
70997;SDS011;58663;52.040;4.634;2023-06-26T11:53:46;4.07;;;1.35;;
70997;SDS011;58663;52.040;4.634;2023-06-26T11:56:14;2.80;;;1.10;;
70997;SDS011;58663;52.040;4.634;2023-06-26T11:58:56;5.88;;;1.67;;
70997;SDS011;58663;52.040;4.634;2023-06-26T12:01:38;3.88;;;1.10;;
70997;SDS011;58663;52.040;4.634;2023-06-26T12:04:08;3.65;;;1.17;;
70997;SDS011;58663;52.040;4.634;2023-06-26T12:06:34;7.13;;;1.30;;
70997;SDS011;58663;52.040;4.634;2023-06-26T12:09:01;7.80;;;1.33;;
70997;SDS011;58663;52.040;4.634;2023-06-26T12:11:31;2.90;;;1.20;;
70997;SDS011;58663;52.040;4.634;2023-06-26T12:13:57;4.55;;;1.63;;
70997;SDS011;58663;52.040;4.634;2023-06-26T12:16:23;3.50;;;1.33;;
70997;SDS011;58663;52.040;4.634;2023-06-26T12:18:48;3.75;;;1.23;;
70997;SDS011;58663;52.040;4.634;2023-06-26T12:21:33;2.40;;;1.30;;
70997;SDS011;58663;52.040;4.634;2023-06-26T12:24:10;2.45;;;1.17;;
70997;SDS011;58663;52.040;4.634;2023-06-26T12:26:38;5.18;;;1.15;;
70997;SDS011;58663;52.040;4.634;2023-06-26T12:29:09;5.57;;;1.50;;
70997;SDS011;58663;52.040;4.634;2023-06-26T12:31:36;5.03;;;1.45;;
70997;SDS011;58663;52.040;4.634;2023-06-26T12:34:11;4.90;;;1.15;;
70997;SDS011;58663;52.040;4.634;2023-06-26T12:36:43;4.75;;;1.42;;
70997;SDS011;58663;52.040;4.634;2023-06-26T12:39:10;2.45;;;1.40;;
70997;SDS011;58663;52.040;4.634;2023-06-26T12:41:52;2.95;;;1.60;;
70997;SDS011;58663;52.040;4.634;2023-06-26T12:44:22;4.00;;;1.30;;
70997;SDS011;58663;52.040;4.634;2023-06-26T12:46:54;4.07;;;1.30;;
70997;SDS011;58663;52.040;4.634;2023-06-26T12:49:30;8.18;;;1.40;;
70997;SDS011;58663;52.040;4.634;2023-06-26T12:51:57;6.10;;;1.20;;
70997;SDS011;58663;52.040;4.634;2023-06-26T12:54:23;83.65;;;5.25;;
70997;SDS011;58663;52.040;4.634;2023-06-26T12:56:49;10.52;;;1.30;;
70997;SDS011;58663;52.040;4.634;2023-06-26T12:59:14;4.40;;;1.45;;
70997;SDS011;58663;52.040;4.634;2023-06-26T13:01:39;11.43;;;1.88;;
70997;SDS011;58663;52.040;4.634;2023-06-26T13:04:05;5.53;;;1.10;;
70997;SDS011;58663;52.040;4.634;2023-06-26T13:06:30;6.88;;;1.48;;
70997;SDS011;58663;52.040;4.634;2023-06-26T13:08:56;4.50;;;1.20;;
70997;SDS011;58663;52.040;4.634;2023-06-26T13:11:23;11.32;;;1.65;;
70997;SDS011;58663;52.040;4.634;2023-06-26T13:13:48;9.45;;;1.83;;
70997;SDS011;58663;52.040;4.634;2023-06-26T13:16:13;11.15;;;1.92;;
70997;SDS011;58663;52.040;4.634;2023-06-26T13:18:39;16.17;;;1.83;;
70997;SDS011;58663;52.040;4.634;2023-06-26T13:21:04;3.67;;;1.27;;
70997;SDS011;58663;52.040;4.634;2023-06-26T13:23:29;2.55;;;1.20;;
70997;SDS011;58663;52.040;4.634;2023-06-26T13:25:55;16.38;;;1.40;;
70997;SDS011;58663;52.040;4.634;2023-06-26T13:28:20;6.65;;;1.25;;
70997;SDS011;58663;52.040;4.634;2023-06-26T13:30:45;2.75;;;1.17;;
70997;SDS011;58663;52.040;4.634;2023-06-26T13:33:11;3.53;;;1.17;;
70997;SDS011;58663;52.040;4.634;2023-06-26T13:35:36;5.55;;;1.20;;
70997;SDS011;58663;52.040;4.634;2023-06-26T13:38:02;4.07;;;1.30;;
70997;SDS011;58663;52.040;4.634;2023-06-26T13:40:27;4.18;;;1.35;;
70997;SDS011;58663;52.040;4.634;2023-06-26T13:42:52;5.30;;;1.08;;
70997;SDS011;58663;52.040;4.634;2023-06-26T13:45:18;6.70;;;1.50;;
70997;SDS011;58663;52.040;4.634;2023-06-26T13:47:43;13.27;;;2.45;;
70997;SDS011;58663;52.040;4.634;2023-06-26T13:50:09;5.03;;;1.13;;
70997;SDS011;58663;52.040;4.634;2023-06-26T13:52:34;6.35;;;1.40;;
70997;SDS011;58663;52.040;4.634;2023-06-26T13:55:00;9.88;;;1.58;;
70997;SDS011;58663;52.040;4.634;2023-06-26T13:57:25;9.07;;;1.30;;
70997;SDS011;58663;52.040;4.634;2023-06-26T13:59:53;5.97;;;1.48;;
70997;SDS011;58663;52.040;4.634;2023-06-26T14:02:18;6.10;;;1.50;;
70997;SDS011;58663;52.040;4.634;2023-06-26T14:04:44;3.25;;;1.52;;
70997;SDS011;58663;52.040;4.634;2023-06-26T14:07:09;3.38;;;1.33;;
70997;SDS011;58663;52.040;4.634;2023-06-26T14:09:34;12.68;;;1.77;;
70997;SDS011;58663;52.040;4.634;2023-06-26T14:12:00;2.90;;;1.35;;
70997;SDS011;58663;52.040;4.634;2023-06-26T14:14:25;2.17;;;1.10;;
70997;SDS011;58663;52.040;4.634;2023-06-26T14:16:50;5.85;;;1.17;;
70997;SDS011;58663;52.040;4.634;2023-06-26T14:19:16;3.67;;;1.48;;
70997;SDS011;58663;52.040;4.634;2023-06-26T14:21:44;2.40;;;1.38;;
70997;SDS011;58663;52.040;4.634;2023-06-26T14:24:10;6.63;;;1.42;;
70997;SDS011;58663;52.040;4.634;2023-06-26T14:26:35;2.80;;;1.42;;
70997;SDS011;58663;52.040;4.634;2023-06-26T14:29:01;11.80;;;1.40;;
70997;SDS011;58663;52.040;4.634;2023-06-26T14:31:27;9.23;;;1.58;;
70997;SDS011;58663;52.040;4.634;2023-06-26T14:33:53;2.80;;;1.30;;
70997;SDS011;58663;52.040;4.634;2023-06-26T14:36:18;4.05;;;1.40;;
70997;SDS011;58663;52.040;4.634;2023-06-26T14:38:44;2.28;;;1.13;;
70997;SDS011;58663;52.040;4.634;2023-06-26T14:41:09;2.28;;;1.13;;
70997;SDS011;58663;52.040;4.634;2023-06-26T14:43:35;4.50;;;1.20;;
70997;SDS011;58663;52.040;4.634;2023-06-26T14:46:00;4.13;;;1.00;;
70997;SDS011;58663;52.040;4.634;2023-06-26T14:48:25;2.75;;;1.25;;
70997;SDS011;58663;52.040;4.634;2023-06-26T14:50:51;2.00;;;1.20;;
70997;SDS011;58663;52.040;4.634;2023-06-26T14:53:16;5.85;;;1.60;;
70997;SDS011;58663;52.040;4.634;2023-06-26T14:55:42;3.22;;;1.08;;
70997;SDS011;58663;52.040;4.634;2023-06-26T14:58:07;4.63;;;1.38;;